sensor_id;sensor_type;location;lat;lon;timestamp;pressure;altitude;pressure_sealevel;temperature;humidity
69574;BME280;62840;52.366;5.980;2022-10-16T00:01:34;100872.81;;;13.22;77.32
69574;BME280;62840;52.366;5.980;2022-10-16T00:04:01;100873.78;;;13.21;77.14
69574;BME280;62840;52.366;5.980;2022-10-16T00:06:32;100872.13;;;13.20;77.15
69574;BME280;62840;52.366;5.980;2022-10-16T00:09:01;100867.91;;;13.17;77.23
69574;BME280;62840;52.366;5.980;2022-10-16T00:11:28;100866.34;;;13.14;77.07
69574;BME280;62840;52.366;5.980;2022-10-16T00:14:07;100866.63;;;13.11;77.27
69574;BME280;62840;52.366;5.980;2022-10-16T00:16:34;100867.91;;;13.07;77.08
69574;BME280;62840;52.366;5.980;2022-10-16T00:19:00;100864.53;;;13.05;76.92
69574;BME280;62840;52.366;5.980;2022-10-16T00:21:31;100866.22;;;13.06;77.16
69574;BME280;62840;52.366;5.980;2022-10-16T00:24:00;100869.91;;;13.05;77.19
69574;BME280;62840;52.366;5.980;2022-10-16T00:26:30;100869.19;;;13.03;77.20
69574;BME280;62840;52.366;5.980;2022-10-16T00:28:59;100878.34;;;13.01;76.85
69574;BME280;62840;52.366;5.980;2022-10-16T00:31:30;100877.47;;;13.00;77.21
69574;BME280;62840;52.366;5.980;2022-10-16T00:33:57;100881.03;;;13.01;77.34
69574;BME280;62840;52.366;5.980;2022-10-16T00:36:25;100881.16;;;12.99;77.07
69574;BME280;62840;52.366;5.980;2022-10-16T00:38:56;100870.44;;;12.99;77.12
69574;BME280;62840;52.366;5.980;2022-10-16T00:41:31;100876.09;;;12.96;77.11
69574;BME280;62840;52.366;5.980;2022-10-16T00:43:59;100881.47;;;12.96;76.89
69574;BME280;62840;52.366;5.980;2022-10-16T00:46:54;100869.16;;;12.93;77.24
69574;BME280;62840;52.366;5.980;2022-10-16T00:49:27;100867.38;;;12.94;77.27
69574;BME280;62840;52.366;5.980;2022-10-16T00:51:53;100863.97;;;12.92;77.19
69574;BME280;62840;52.366;5.980;2022-10-16T00:54:27;100868.47;;;12.91;77.07
69574;BME280;62840;52.366;5.980;2022-10-16T00:57:02;100868.63;;;12.90;77.17
69574;BME280;62840;52.366;5.980;2022-10-16T00:59:36;100874.81;;;12.90;77.04
69574;BME280;62840;52.366;5.980;2022-10-16T01:02:12;100868.75;;;12.88;77.13
69574;BME280;62840;52.366;5.980;2022-10-16T01:04:46;100869.59;;;12.89;76.97
69574;BME280;62840;52.366;5.980;2022-10-16T01:07:26;100876.66;;;12.90;76.98
69574;BME280;62840;52.366;5.980;2022-10-16T01:10:08;100863.41;;;12.88;76.97
69574;BME280;62840;52.366;5.980;2022-10-16T01:12:46;100861.72;;;12.87;76.94
69574;BME280;62840;52.366;5.980;2022-10-16T01:15:21;100864.53;;;12.86;77.21
69574;BME280;62840;52.366;5.980;2022-10-16T01:18:03;100864.84;;;12.83;77.09
69574;BME280;62840;52.366;5.980;2022-10-16T01:20:37;100859.19;;;12.86;76.93
69574;BME280;62840;52.366;5.980;2022-10-16T01:23:36;100867.91;;;12.88;77.08
69574;BME280;62840;52.366;5.980;2022-10-16T01:26:23;100864.53;;;12.86;77.11
69574;BME280;62840;52.366;5.980;2022-10-16T01:29:10;100882.28;;;12.87;77.02
69574;BME280;62840;52.366;5.980;2022-10-16T01:31:44;100873.28;;;12.88;77.18
69574;BME280;62840;52.366;5.980;2022-10-16T01:34:18;100864.53;;;12.86;77.20
69574;BME280;62840;52.366;5.980;2022-10-16T01:36:52;100871.56;;;12.87;77.06
69574;BME280;62840;52.366;5.980;2022-10-16T01:39:31;100864.25;;;12.89;76.97
69574;BME280;62840;52.366;5.980;2022-10-16T01:42:07;100860.59;;;12.90;76.97
69574;BME280;62840;52.366;5.980;2022-10-16T01:44:39;100865.66;;;12.93;76.84
69574;BME280;62840;52.366;5.980;2022-10-16T01:47:10;100869.03;;;12.95;77.08
69574;BME280;62840;52.366;5.980;2022-10-16T01:49:41;100860.03;;;12.96;76.98
69574;BME280;62840;52.366;5.980;2022-10-16T01:52:17;100869.03;;;12.95;77.00
69574;BME280;62840;52.366;5.980;2022-10-16T01:54:56;100867.06;;;12.97;77.06
69574;BME280;62840;52.366;5.980;2022-10-16T01:57:26;100865.09;;;12.99;77.02
69574;BME280;62840;52.366;5.980;2022-10-16T02:00:10;100870.44;;;12.99;77.18
69574;BME280;62840;52.366;5.980;2022-10-16T02:02:52;100861.41;;;13.00;77.14
69574;BME280;62840;52.366;5.980;2022-10-16T02:05:25;100866.78;;;13.00;76.97
69574;BME280;62840;52.366;5.980;2022-10-16T02:07:58;100859.44;;;13.02;76.84
69574;BME280;62840;52.366;5.980;2022-10-16T02:10:25;100861.16;;;13.03;77.13
69574;BME280;62840;52.366;5.980;2022-10-16T02:13:00;100869.91;;;13.05;76.96
69574;BME280;62840;52.366;5.980;2022-10-16T02:15:41;100863.41;;;13.08;76.93
69574;BME280;62840;52.366;5.980;2022-10-16T02:18:08;100861.44;;;13.10;77.12
69574;BME280;62840;52.366;5.980;2022-10-16T02:20:41;100863.94;;;13.11;77.07
69574;BME280;62840;52.366;5.980;2022-10-16T02:23:23;100862.84;;;13.14;77.01
69574;BME280;62840;52.366;5.980;2022-10-16T02:25:56;100877.06;;;13.14;76.96
69574;BME280;62840;52.366;5.980;2022-10-16T02:28:30;100876.34;;;13.12;76.98
69574;BME280;62840;52.366;5.980;2022-10-16T02:31:09;100882.41;;;13.14;76.84
69574;BME280;62840;52.366;5.980;2022-10-16T02:33:38;100884.81;;;13.18;76.93
69574;BME280;62840;52.366;5.980;2022-10-16T02:36:10;100891.88;;;13.19;77.02
69574;BME280;62840;52.366;5.980;2022-10-16T02:38:37;100879.31;;;13.19;77.02
69574;BME280;62840;52.366;5.980;2022-10-16T02:41:07;100866.75;;;13.20;76.87
69574;BME280;62840;52.366;5.980;2022-10-16T02:43:45;100878.19;;;13.22;76.82
69574;BME280;62840;52.366;5.980;2022-10-16T02:46:16;100868.44;;;13.21;76.59
69574;BME280;62840;52.366;5.980;2022-10-16T02:48:47;100864.78;;;13.22;76.55
69574;BME280;62840;52.366;5.980;2022-10-16T02:51:13;100873.53;;;13.24;76.79
69574;BME280;62840;52.366;5.980;2022-10-16T02:53:42;100877.75;;;13.26;76.90
69574;BME280;62840;52.366;5.980;2022-10-16T02:56:08;100891.28;;;13.25;76.62
69574;BME280;62840;52.366;5.980;2022-10-16T02:58:34;100892.97;;;13.26;76.80
69574;BME280;62840;52.366;5.980;2022-10-16T03:01:01;100889.28;;;13.27;76.58
69574;BME280;62840;52.366;5.980;2022-10-16T03:03:33;100901.72;;;13.28;76.63
69574;BME280;62840;52.366;5.980;2022-10-16T03:06:01;100908.75;;;13.29;76.88
69574;BME280;62840;52.366;5.980;2022-10-16T03:08:29;100904.22;;;13.29;76.75
69574;BME280;62840;52.366;5.980;2022-10-16T03:10:55;100904.22;;;13.29;76.65
69574;BME280;62840;52.366;5.980;2022-10-16T03:13:22;100903.41;;;13.29;76.92
69574;BME280;62840;52.366;5.980;2022-10-16T03:15:51;100907.78;;;13.30;76.77
69574;BME280;62840;52.366;5.980;2022-10-16T03:18:19;100913.81;;;13.32;76.78
69574;BME280;62840;52.366;5.980;2022-10-16T03:20:47;100906.78;;;13.31;76.65
69574;BME280;62840;52.366;5.980;2022-10-16T03:23:16;100909.47;;;13.31;76.81
69574;BME280;62840;52.366;5.980;2022-10-16T03:25:44;100908.75;;;13.29;76.93
69574;BME280;62840;52.366;5.980;2022-10-16T03:28:12;100901.72;;;13.28;76.70
69574;BME280;62840;52.366;5.980;2022-10-16T03:30:38;100898.34;;;13.26;76.91
69574;BME280;62840;52.366;5.980;2022-10-16T03:33:08;100903.41;;;13.29;76.55
69574;BME280;62840;52.366;5.980;2022-10-16T03:35:38;100888.31;;;13.28;76.68
69574;BME280;62840;52.366;5.980;2022-10-16T03:38:07;100895.50;;;13.27;76.80
69574;BME280;62840;52.366;5.980;2022-10-16T03:40:33;100885.06;;;13.24;76.84
69574;BME280;62840;52.366;5.980;2022-10-16T03:43:00;100900.31;;;13.24;77.11
69574;BME280;62840;52.366;5.980;2022-10-16T03:45:29;100899.47;;;13.23;76.75
69574;BME280;62840;52.366;5.980;2022-10-16T03:47:54;100902.28;;;13.22;76.69
69574;BME280;62840;52.366;5.980;2022-10-16T03:50:22;100899.72;;;13.20;76.58
69574;BME280;62840;52.366;5.980;2022-10-16T03:52:50;100905.94;;;13.21;76.63
69574;BME280;62840;52.366;5.980;2022-10-16T03:55:22;100900.88;;;13.18;76.76
69574;BME280;62840;52.366;5.980;2022-10-16T03:57:53;100911.59;;;13.18;76.55
69574;BME280;62840;52.366;5.980;2022-10-16T04:00:22;100908.19;;;13.15;76.84
69574;BME280;62840;52.366;5.980;2022-10-16T04:02:48;100915.25;;;13.16;76.76
69574;BME280;62840;52.366;5.980;2022-10-16T04:05:25;100915.25;;;13.16;76.96
69574;BME280;62840;52.366;5.980;2022-10-16T04:07:55;100918.91;;;13.15;77.04
69574;BME280;62840;52.366;5.980;2022-10-16T04:10:26;100911.88;;;13.14;76.96
69574;BME280;62840;52.366;5.980;2022-10-16T04:12:57;100924.56;;;13.12;76.93
69574;BME280;62840;52.366;5.980;2022-10-16T04:15:26;100929.06;;;13.12;76.69
69574;BME280;62840;52.366;5.980;2022-10-16T04:17:55;100935.53;;;13.09;76.96
69574;BME280;62840;52.366;5.980;2022-10-16T04:20:21;100941.88;;;13.08;76.85
69574;BME280;62840;52.366;5.980;2022-10-16T04:22:54;100948.25;;;13.07;76.98
69574;BME280;62840;52.366;5.980;2022-10-16T04:25:23;100959.94;;;13.06;76.92
69574;BME280;62840;52.366;5.980;2022-10-16T04:27:52;100944.84;;;13.05;76.76
69574;BME280;62840;52.366;5.980;2022-10-16T04:30:18;100955.69;;;13.04;76.85
69574;BME280;62840;52.366;5.980;2022-10-16T04:32:47;100958.38;;;13.04;76.68
69574;BME280;62840;52.366;5.980;2022-10-16T04:35:29;100948.78;;;13.01;76.91
69574;BME280;62840;52.366;5.980;2022-10-16T04:38:07;100947.09;;;13.00;76.82
69574;BME280;62840;52.366;5.980;2022-10-16T04:40:36;100955.28;;;12.99;76.94
69574;BME280;62840;52.366;5.980;2022-10-16T04:43:04;100960.63;;;12.99;77.05
69574;BME280;62840;52.366;5.980;2022-10-16T04:45:33;100966.84;;;12.99;76.99
69574;BME280;62840;52.366;5.980;2022-10-16T04:48:04;100979.50;;;12.97;77.19
69574;BME280;62840;52.366;5.980;2022-10-16T04:50:31;100984.88;;;12.97;77.00
69574;BME280;62840;52.366;5.980;2022-10-16T04:52:58;100992.06;;;12.97;76.74
69574;BME280;62840;52.366;5.980;2022-10-16T04:55:26;100995.84;;;12.94;76.82
69574;BME280;62840;52.366;5.980;2022-10-16T04:57:55;100994.16;;;12.93;77.00
69574;BME280;62840;52.366;5.980;2022-10-16T05:00:23;100989.78;;;12.92;77.02
69574;BME280;62840;52.366;5.980;2022-10-16T05:02:51;100990.75;;;12.91;77.06
69574;BME280;62840;52.366;5.980;2022-10-16T05:05:19;100996.13;;;12.91;76.89
69574;BME280;62840;52.366;5.980;2022-10-16T05:07:45;100992.72;;;12.89;77.11
69574;BME280;62840;52.366;5.980;2022-10-16T05:10:13;100999.78;;;12.90;77.07
69574;BME280;62840;52.366;5.980;2022-10-16T05:12:39;101002.47;;;12.90;76.77
69574;BME280;62840;52.366;5.980;2022-10-16T05:15:09;101005.97;;;12.90;76.82
69574;BME280;62840;52.366;5.980;2022-10-16T05:17:43;101018.66;;;12.88;77.00
69574;BME280;62840;52.366;5.980;2022-10-16T05:20:11;101019.50;;;12.89;76.92
69574;BME280;62840;52.366;5.980;2022-10-16T05:22:45;101024.84;;;12.89;77.08
69574;BME280;62840;52.366;5.980;2022-10-16T05:25:11;101023.16;;;12.88;76.82
69574;BME280;62840;52.366;5.980;2022-10-16T05:27:37;101030.19;;;12.89;76.96
69574;BME280;62840;52.366;5.980;2022-10-16T05:30:03;101030.19;;;12.89;77.05
69574;BME280;62840;52.366;5.980;2022-10-16T05:32:33;101031.91;;;12.90;77.20
69574;BME280;62840;52.366;5.980;2022-10-16T05:34:59;101027.41;;;12.90;77.02
69574;BME280;62840;52.366;5.980;2022-10-16T05:37:25;101022.88;;;12.91;76.73
69574;BME280;62840;52.366;5.980;2022-10-16T05:39:51;101030.91;;;12.91;77.02
69574;BME280;62840;52.366;5.980;2022-10-16T05:42:16;101032.75;;;12.90;76.94
69574;BME280;62840;52.366;5.980;2022-10-16T05:44:44;101034.59;;;12.90;77.00
69574;BME280;62840;52.366;5.980;2022-10-16T05:47:12;101040.06;;;12.88;76.84
69574;BME280;62840;52.366;5.980;2022-10-16T05:49:48;101035.56;;;12.89;76.94
69574;BME280;62840;52.366;5.980;2022-10-16T05:52:14;101047.13;;;12.89;76.91
69574;BME280;62840;52.366;5.980;2022-10-16T05:54:40;101056.00;;;12.90;76.92
69574;BME280;62840;52.366;5.980;2022-10-16T05:57:06;101052.22;;;12.92;76.87
69574;BME280;62840;52.366;5.980;2022-10-16T05:59:32;101051.06;;;12.95;77.16
69574;BME280;62840;52.366;5.980;2022-10-16T06:02:00;101057.44;;;12.94;77.16
69574;BME280;62840;52.366;5.980;2022-10-16T06:04:35;101069.81;;;12.95;76.84
69574;BME280;62840;52.366;5.980;2022-10-16T06:07:04;101077.56;;;12.98;76.82
69574;BME280;62840;52.366;5.980;2022-10-16T06:09:31;101077.56;;;12.98;76.75
69574;BME280;62840;52.366;5.980;2022-10-16T06:12:07;101080.94;;;13.00;76.79
69574;BME280;62840;52.366;5.980;2022-10-16T06:14:35;101079.28;;;12.99;76.60
69574;BME280;62840;52.366;5.980;2022-10-16T06:17:05;101080.13;;;13.00;76.58
69574;BME280;62840;52.366;5.980;2022-10-16T06:19:35;101086.31;;;13.00;76.89
69574;BME280;62840;52.366;5.980;2022-10-16T06:22:00;101085.47;;;13.00;76.70
69574;BME280;62840;52.366;5.980;2022-10-16T06:24:35;101091.66;;;13.00;76.87
69574;BME280;62840;52.366;5.980;2022-10-16T06:27:06;101091.41;;;13.03;76.67
69574;BME280;62840;52.366;5.980;2022-10-16T06:29:39;101102.13;;;13.03;76.86
69574;BME280;62840;52.366;5.980;2022-10-16T06:32:13;101103.81;;;13.04;76.83
69574;BME280;62840;52.366;5.980;2022-10-16T06:34:42;101110.88;;;13.05;76.65
69574;BME280;62840;52.366;5.980;2022-10-16T06:37:11;101115.94;;;13.08;76.73
69574;BME280;62840;52.366;5.980;2022-10-16T06:39:40;101114.94;;;13.09;76.55
69574;BME280;62840;52.366;5.980;2022-10-16T06:42:08;101118.22;;;13.13;76.82
69574;BME280;62840;52.366;5.980;2022-10-16T06:44:33;101126.13;;;13.14;76.36
69574;BME280;62840;52.366;5.980;2022-10-16T06:47:03;101135.69;;;13.17;76.58
69574;BME280;62840;52.366;5.980;2022-10-16T06:49:29;101132.03;;;13.18;76.45
69574;BME280;62840;52.366;5.980;2022-10-16T06:52:03;101145.28;;;13.20;76.42
69574;BME280;62840;52.366;5.980;2022-10-16T06:54:29;101145.28;;;13.20;76.60
69574;BME280;62840;52.366;5.980;2022-10-16T06:57:00;101164.88;;;13.20;76.61
69574;BME280;62840;52.366;5.980;2022-10-16T06:59:25;101163.91;;;13.21;76.51
69574;BME280;62840;52.366;5.980;2022-10-16T07:01:51;101169.09;;;13.23;76.36
69574;BME280;62840;52.366;5.980;2022-10-16T07:04:19;101180.28;;;13.28;76.37
69574;BME280;62840;52.366;5.980;2022-10-16T07:06:45;101179.28;;;13.29;76.14
69574;BME280;62840;52.366;5.980;2022-10-16T07:09:11;101190.72;;;13.31;76.31
69574;BME280;62840;52.366;5.980;2022-10-16T07:11:38;101187.03;;;13.32;76.52
69574;BME280;62840;52.366;5.980;2022-10-16T07:14:17;101167.31;;;13.33;76.31
69574;BME280;62840;52.366;5.980;2022-10-16T07:16:44;101166.31;;;13.34;76.30
69574;BME280;62840;52.366;5.980;2022-10-16T07:19:13;101169.72;;;13.36;76.55
69574;BME280;62840;52.366;5.980;2022-10-16T07:21:41;101172.41;;;13.36;76.45
69574;BME280;62840;52.366;5.980;2022-10-16T07:24:12;101174.09;;;13.37;76.29
69574;BME280;62840;52.366;5.980;2022-10-16T07:26:42;101185.53;;;13.39;76.49
69574;BME280;62840;52.366;5.980;2022-10-16T07:29:15;101180.88;;;13.41;76.44
69574;BME280;62840;52.366;5.980;2022-10-16T07:31:45;101187.94;;;13.42;76.43
69574;BME280;62840;52.366;5.980;2022-10-16T07:34:14;101187.94;;;13.42;76.74
69574;BME280;62840;52.366;5.980;2022-10-16T07:36:46;101189.59;;;13.43;76.48
69574;BME280;62840;52.366;5.980;2022-10-16T07:39:13;101198.66;;;13.42;76.52
69574;BME280;62840;52.366;5.980;2022-10-16T07:41:40;101189.59;;;13.43;76.52
69574;BME280;62840;52.366;5.980;2022-10-16T07:44:06;101196.69;;;13.44;76.80
69574;BME280;62840;52.366;5.980;2022-10-16T07:46:35;101204.44;;;13.47;76.56
69574;BME280;62840;52.366;5.980;2022-10-16T07:49:01;101207.97;;;13.48;76.39
69574;BME280;62840;52.366;5.980;2022-10-16T07:51:29;101216.69;;;13.50;76.64
69574;BME280;62840;52.366;5.980;2022-10-16T07:53:55;101220.09;;;13.52;76.47
69574;BME280;62840;52.366;5.980;2022-10-16T07:56:21;101219.13;;;13.53;76.43
69574;BME280;62840;52.366;5.980;2022-10-16T07:58:48;101211.94;;;13.53;76.55
69574;BME280;62840;52.366;5.980;2022-10-16T08:01:16;101223.41;;;13.55;76.45
69574;BME280;62840;52.366;5.980;2022-10-16T08:03:47;101223.28;;;13.57;76.54
69574;BME280;62840;52.366;5.980;2022-10-16T08:06:14;101232.88;;;13.60;76.40
69574;BME280;62840;52.366;5.980;2022-10-16T08:08:40;101244.13;;;13.63;76.20
69574;BME280;62840;52.366;5.980;2022-10-16T08:11:08;101253.72;;;13.66;76.45
69574;BME280;62840;52.366;5.980;2022-10-16T08:13:34;101260.94;;;13.65;76.23
69574;BME280;62840;52.366;5.980;2022-10-16T08:16:02;101266.88;;;13.69;76.35
69574;BME280;62840;52.366;5.980;2022-10-16T08:18:30;101260.53;;;13.70;76.36
69574;BME280;62840;52.366;5.980;2022-10-16T08:20:59;101266.88;;;13.69;76.14
69574;BME280;62840;52.366;5.980;2022-10-16T08:23:27;101265.88;;;13.70;76.06
69574;BME280;62840;52.366;5.980;2022-10-16T08:26:02;101266.88;;;13.69;76.18
69574;BME280;62840;52.366;5.980;2022-10-16T08:28:32;101264.19;;;13.69;76.12
69574;BME280;62840;52.366;5.980;2022-10-16T08:31:09;101266.16;;;13.67;76.17
69574;BME280;62840;52.366;5.980;2022-10-16T08:33:42;101276.88;;;13.67;76.36
69574;BME280;62840;52.366;5.980;2022-10-16T08:36:13;101276.03;;;13.66;76.23
69574;BME280;62840;52.366;5.980;2022-10-16T08:38:47;101282.25;;;13.67;76.02
69574;BME280;62840;52.366;5.980;2022-10-16T08:41:22;101286.59;;;13.68;75.97
69574;BME280;62840;52.366;5.980;2022-10-16T08:44:29;101287.31;;;13.70;76.19
69574;BME280;62840;52.366;5.980;2022-10-16T08:47:13;101298.03;;;13.70;76.04
69574;BME280;62840;52.366;5.980;2022-10-16T08:49:56;101300.47;;;13.73;76.04
69574;BME280;62840;52.366;5.980;2022-10-16T08:52:32;101301.19;;;13.75;76.21
69574;BME280;62840;52.366;5.980;2022-10-16T08:55:02;101311.63;;;13.78;76.16
69574;BME280;62840;52.366;5.980;2022-10-16T08:57:30;101307.94;;;13.79;76.08
69574;BME280;62840;52.366;5.980;2022-10-16T08:59:59;101306.69;;;13.83;75.83
69574;BME280;62840;52.366;5.980;2022-10-16T09:02:49;101314.19;;;13.89;75.89
69574;BME280;62840;52.366;5.980;2022-10-16T09:08:45;101335.41;;;14.02;75.76
69574;BME280;62840;52.366;5.980;2022-10-16T09:11:24;101337.69;;;14.07;75.62
69574;BME280;62840;52.366;5.980;2022-10-16T09:14:08;101342.75;;;14.10;75.68
69574;BME280;62840;52.366;5.980;2022-10-16T09:16:52;101351.25;;;14.15;76.02
69574;BME280;62840;52.366;5.980;2022-10-16T09:19:27;101354.63;;;14.17;75.91
69574;BME280;62840;52.366;5.980;2022-10-16T09:21:59;101353.38;;;14.21;75.79
69574;BME280;62840;52.366;5.980;2022-10-16T09:24:40;101361.72;;;14.28;75.85
69574;BME280;62840;52.366;5.980;2022-10-16T09:27:10;101365.97;;;14.30;75.35
69574;BME280;62840;52.366;5.980;2022-10-16T09:29:37;101367.25;;;14.36;75.54
69574;BME280;62840;52.366;5.980;2022-10-16T09:32:12;101361.47;;;14.40;75.08
69574;BME280;62840;52.366;5.980;2022-10-16T09:34:43;101368.25;;;14.45;75.32
69574;BME280;62840;52.366;5.980;2022-10-16T09:37:17;101376.03;;;14.48;75.30
69574;BME280;62840;52.366;5.980;2022-10-16T09:39:56;101381.81;;;14.53;75.01
69574;BME280;62840;52.366;5.980;2022-10-16T09:42:27;101388.59;;;14.57;74.81
69574;BME280;62840;52.366;5.980;2022-10-16T09:44:57;101390.03;;;14.61;74.72
69574;BME280;62840;52.366;5.980;2022-10-16T09:47:27;101386.91;;;14.66;74.57
69574;BME280;62840;52.366;5.980;2022-10-16T09:50:05;101388.59;;;14.67;74.78
69574;BME280;62840;52.366;5.980;2022-10-16T09:53:02;101399.22;;;14.68;74.62
69574;BME280;62840;52.366;5.980;2022-10-16T09:55:58;101387.25;;;14.72;74.63
69574;BME280;62840;52.366;5.980;2022-10-16T09:58:24;101379.91;;;14.74;74.92
69574;BME280;62840;52.366;5.980;2022-10-16T10:00:53;101390.34;;;14.77;74.55
69574;BME280;62840;52.366;5.980;2022-10-16T10:03:37;101390.75;;;14.82;74.42
69574;BME280;62840;52.366;5.980;2022-10-16T10:06:17;101387.81;;;14.86;74.29
69574;BME280;62840;52.366;5.980;2022-10-16T10:09:16;101392.59;;;14.92;73.74
69574;BME280;62840;52.366;5.980;2022-10-16T10:11:53;101401.09;;;14.97;74.10
69574;BME280;62840;52.366;5.980;2022-10-16T10:14:31;101397.16;;;15.01;73.66
69574;BME280;62840;52.366;5.980;2022-10-16T10:17:15;101400.25;;;15.06;73.94
69574;BME280;62840;52.366;5.980;2022-10-16T10:19:49;101407.47;;;15.06;73.97
69574;BME280;62840;52.366;5.980;2022-10-16T10:22:22;101408.16;;;15.08;73.07
69574;BME280;62840;52.366;5.980;2022-10-16T10:25:00;101409.00;;;15.08;73.29
69574;BME280;62840;52.366;5.980;2022-10-16T10:27:52;101418.63;;;15.11;73.25
69574;BME280;62840;52.366;5.980;2022-10-16T10:30:40;101418.63;;;15.11;72.98
69574;BME280;62840;52.366;5.980;2022-10-16T10:33:23;101424.28;;;15.08;72.11
69574;BME280;62840;52.366;5.980;2022-10-16T10:36:05;101423.41;;;15.07;72.12
69574;BME280;62840;52.366;5.980;2022-10-16T10:38:49;101432.19;;;15.09;72.26
69574;BME280;62840;52.366;5.980;2022-10-16T10:41:32;101417.78;;;15.10;72.86
69574;BME280;62840;52.366;5.980;2022-10-16T10:44:50;101423.69;;;15.14;72.60
69574;BME280;62840;52.366;5.980;2022-10-16T10:47:43;101437.84;;;15.16;72.38
69574;BME280;62840;52.366;5.980;2022-10-16T10:50:24;101434.00;;;15.18;72.46
69574;BME280;62840;52.366;5.980;2022-10-16T10:53:11;101440.09;;;15.20;72.31
69574;BME280;62840;52.366;5.980;2022-10-16T10:56:08;101435.44;;;15.22;72.43
69574;BME280;62840;52.366;5.980;2022-10-16T10:59:05;101441.22;;;15.28;72.40
69574;BME280;62840;52.366;5.980;2022-10-16T11:01:51;101431.88;;;15.32;72.68
69574;BME280;62840;52.366;5.980;2022-10-16T11:05:02;101436.69;;;15.38;72.01
69574;BME280;62840;52.366;5.980;2022-10-16T11:07:58;101442.47;;;15.43;71.90
69574;BME280;62840;52.366;5.980;2022-10-16T11:10:34;101451.66;;;15.50;71.51
69574;BME280;62840;52.366;5.980;2022-10-16T11:13:26;101449.09;;;15.58;71.59
69574;BME280;62840;52.366;5.980;2022-10-16T11:16:26;101457.56;;;15.63;71.36
69574;BME280;62840;52.366;5.980;2022-10-16T11:19:02;101462.50;;;15.68;71.11
69574;BME280;62840;52.366;5.980;2022-10-16T11:21:47;101465.06;;;15.70;71.49
69574;BME280;62840;52.366;5.980;2022-10-16T11:24:29;101458.41;;;15.74;71.44
69574;BME280;62840;52.366;5.980;2022-10-16T11:27:11;101457.00;;;15.79;71.38
69574;BME280;62840;52.366;5.980;2022-10-16T11:29:57;101468.91;;;15.87;70.76
69574;BME280;62840;52.366;5.980;2022-10-16T11:32:32;101469.16;;;15.93;70.75
69574;BME280;62840;52.366;5.980;2022-10-16T11:35:19;101475.91;;;15.97;70.74
69574;BME280;62840;52.366;5.980;2022-10-16T11:37:53;101471.94;;;16.01;70.33
69574;BME280;62840;52.366;5.980;2022-10-16T11:40:29;101469.97;;;16.03;70.04
69574;BME280;62840;52.366;5.980;2022-10-16T11:43:04;101471.66;;;16.04;69.99
69574;BME280;62840;52.366;5.980;2022-10-16T11:45:42;101486.09;;;16.03;70.45
69574;BME280;62840;52.366;5.980;2022-10-16T11:48:20;101479.03;;;16.02;70.77
69574;BME280;62840;52.366;5.980;2022-10-16T11:51:09;101479.03;;;16.02;70.58
69574;BME280;62840;52.366;5.980;2022-10-16T11:54:00;101484.13;;;16.05;70.12
69574;BME280;62840;52.366;5.980;2022-10-16T11:56:37;101487.19;;;16.11;69.95
69574;BME280;62840;52.366;5.980;2022-10-16T11:59:13;101479.56;;;16.16;69.74
69574;BME280;62840;52.366;5.980;2022-10-16T12:01:56;101489.88;;;16.20;69.17
69574;BME280;62840;52.366;5.980;2022-10-16T12:04:45;101497.50;;;16.25;69.24
69574;BME280;62840;52.366;5.980;2022-10-16T12:07:24;101493.66;;;16.27;68.89
69574;BME280;62840;52.366;5.980;2022-10-16T12:10:10;101497.91;;;16.30;68.84
69574;BME280;62840;52.366;5.980;2022-10-16T12:12:41;101499.59;;;16.31;68.86
69574;BME280;62840;52.366;5.980;2022-10-16T12:15:23;101494.19;;;16.31;68.54
69574;BME280;62840;52.366;5.980;2022-10-16T12:17:52;101505.84;;;16.32;68.46
69574;BME280;62840;52.366;5.980;2022-10-16T12:20:26;101504.81;;;16.33;68.29
69574;BME280;62840;52.366;5.980;2022-10-16T12:23:01;101503.69;;;16.35;68.87
69574;BME280;62840;52.366;5.980;2022-10-16T12:25:33;101517.69;;;16.39;68.55
69574;BME280;62840;52.366;5.980;2022-10-16T12:28:17;101509.47;;;16.40;68.44
69574;BME280;62840;52.366;5.980;2022-10-16T12:30:57;101517.53;;;16.40;68.35
69574;BME280;62840;52.366;5.980;2022-10-16T12:33:28;101514.00;;;16.40;68.26
69574;BME280;62840;52.366;5.980;2022-10-16T12:35:59;101513.84;;;16.41;68.36
69574;BME280;62840;52.366;5.980;2022-10-16T12:38:37;101512.16;;;16.40;68.84
69574;BME280;62840;52.366;5.980;2022-10-16T12:41:12;101519.09;;;16.43;68.61
69574;BME280;62840;52.366;5.980;2022-10-16T12:43:51;101515.25;;;16.45;68.65
69574;BME280;62840;52.366;5.980;2022-10-16T12:46:23;101522.19;;;16.48;68.52
69574;BME280;62840;52.366;5.980;2022-10-16T12:49:22;101513.97;;;16.50;68.72
69574;BME280;62840;52.366;5.980;2022-10-16T12:51:57;101523.72;;;16.51;68.35
69574;BME280;62840;52.366;5.980;2022-10-16T12:54:36;101525.28;;;16.53;68.56
69574;BME280;62840;52.366;5.980;2022-10-16T12:57:41;101522.13;;;16.58;67.48
69574;BME280;62840;52.366;5.980;2022-10-16T13:00:26;101527.53;;;16.58;67.54
69574;BME280;62840;52.366;5.980;2022-10-16T13:03:24;101529.22;;;16.59;66.60
69574;BME280;62840;52.366;5.980;2022-10-16T13:06:19;101532.91;;;16.58;67.02
69574;BME280;62840;52.366;5.980;2022-10-16T13:09:08;101536.63;;;16.57;67.29
69574;BME280;62840;52.366;5.980;2022-10-16T13:12:11;101546.53;;;16.56;66.98
69574;BME280;62840;52.366;5.980;2022-10-16T13:14:54;101531.22;;;16.57;67.23
69574;BME280;62840;52.366;5.980;2022-10-16T13:17:41;101539.13;;;16.58;67.63
69574;BME280;62840;52.366;5.980;2022-10-16T13:20:23;101538.00;;;16.61;67.26
69574;BME280;62840;52.366;5.980;2022-10-16T13:23:05;101534.31;;;16.62;67.31
69574;BME280;62840;52.366;5.980;2022-10-16T13:25:49;101543.41;;;16.61;66.88
69574;BME280;62840;52.366;5.980;2022-10-16T13:28:32;101551.47;;;16.61;67.26
69574;BME280;62840;52.366;5.980;2022-10-16T13:31:03;101555.84;;;16.62;67.31